Time;durP1;ratioP1;P1;durP2;ratioP2;P2;SDS_P1;SDS_P2;PMS_P1;PMS_P2;Temp;Humidity;BMP_temperature;BMP_pressure;BME280_temperature;BME280_humidity;BME280_pressure;Samples;Min_cycle;Max_cycle;Signal;HPM_P1;HPM_P2
2022/03/21 00:03:43;;;;;;;46.47;22.70;;;;;;;2.42;65.77;103313.88;10542129;28;20326;-66
2022/03/21 00:08:46;;;;;;;51.50;23.10;;;;;;;2.39;66.69;103301.72;10545198;28;20219;-66
2022/03/21 00:13:53;;;;;;;55.53;24.53;;;;;;;2.35;66.46;103308.31;10544717;28;20216;-62
2022/03/21 00:18:56;;;;;;;60.70;24.60;;;;;;;2.26;65.12;103310.22;10544763;28;20242;-65
2022/03/21 00:23:59;;;;;;;48.53;23.63;;;;;;;2.28;64.73;103307.75;10544480;28;20717;-65
2022/03/21 00:29:04;;;;;;;54.13;24.37;;;;;;;2.30;65.72;103304.53;10544131;28;20211;-66
2022/03/21 00:34:07;;;;;;;60.13;25.87;;;;;;;2.17;66.03;103312.13;10544118;28;20231;-65
2022/03/21 00:39:11;;;;;;;53.03;24.23;;;;;;;2.23;65.28;103314.25;10543537;28;20231;-68
2022/03/21 00:44:16;;;;;;;65.73;27.40;;;;;;;2.18;66.38;103311.38;10543492;28;20225;-69
2022/03/21 00:49:19;;;;;;;61.03;26.37;;;;;;;2.14;66.44;103314.47;10543596;28;20552;-69
2022/03/21 00:54:22;;;;;;;52.07;24.33;;;;;;;2.06;66.52;103315.63;10543106;28;20211;-67
2022/03/21 00:59:27;;;;;;;51.00;24.17;;;;;;;2.03;66.98;103309.38;10542883;28;20691;-66
2022/03/21 01:04:37;;;;;;;61.75;25.97;;;;;;;1.94;67.32;103307.06;10423676;28;10001032;-67
2022/03/21 01:09:40;;;;;;;65.13;27.10;;;;;;;1.91;67.72;103301.72;10542408;28;20406;-67
2022/03/21 01:14:45;;;;;;;53.53;26.17;;;;;;;2.06;67.52;103307.03;10542399;28;20220;-67
2022/03/21 01:19:48;;;;;;;59.17;25.67;;;;;;;2.10;66.79;103288.56;10542007;28;20215;-68
2022/03/21 01:24:52;;;;;;;56.47;25.70;;;;;;;2.15;65.81;103290.66;10541887;28;20680;-67
2022/03/21 01:29:56;;;;;;;57.97;26.50;;;;;;;1.96;67.34;103285.03;10543008;28;20223;-66
2022/03/21 01:34:59;;;;;;;54.13;24.83;;;;;;;2.03;66.48;103283.78;10545104;28;20238;-68
2022/03/21 01:40:04;;;;;;;52.17;25.90;;;;;;;1.92;66.74;103285.56;10544234;28;20231;-69
2022/03/21 01:45:10;;;;;;;68.57;26.10;;;;;;;1.80;67.86;103276.13;10544374;28;20223;-69
2022/03/21 01:50:15;;;;;;;49.93;24.37;;;;;;;1.74;67.23;103273.13;10544483;28;20306;-68
2022/03/21 02:00:41;;;;;;;58.23;25.77;;;;;;;1.74;67.78;103271.47;10543938;28;20227;-66
2022/03/21 02:05:47;;;;;;;55.73;25.80;;;;;;;1.65;67.83;103275.03;10543931;28;20215;-68
2022/03/21 02:10:51;;;;;;;60.40;26.40;;;;;;;1.66;67.45;103277.69;10543298;28;20229;-68
2022/03/21 02:15:56;;;;;;;55.83;25.63;;;;;;;1.59;67.97;103272.91;10543344;28;20298;-65
2022/03/21 02:21:01;;;;;;;62.83;28.60;;;;;;;1.61;68.19;103271.34;10543063;28;20256;-66
2022/03/21 02:26:08;;;;;;;64.57;28.47;;;;;;;1.67;68.16;103276.03;10542183;28;20544;-66
2022/03/21 02:31:12;;;;;;;62.03;29.23;;;;;;;1.52;69.25;103285.16;10542553;28;20215;-67
2022/03/21 02:36:17;;;;;;;64.57;30.33;;;;;;;1.53;68.58;103286.94;10542308;28;20790;-67
2022/03/21 02:41:21;;;;;;;62.93;30.87;;;;;;;1.50;67.64;103279.91;10541955;28;20262;-67
2022/03/21 02:46:25;;;;;;;71.87;32.37;;;;;;;1.54;68.54;103283.56;10542281;28;20225;-67
2022/03/21 02:51:32;;;;;;;76.67;33.80;;;;;;;1.60;68.67;103291.72;10542096;28;20682;-70
2022/03/21 02:56:37;;;;;;;82.90;36.00;;;;;;;1.59;67.86;103285.69;10541996;28;20652;-68
2022/03/21 03:01:40;;;;;;;78.20;34.73;;;;;;;1.54;67.62;103275.91;10541912;28;20664;-65
2022/03/21 03:06:43;;;;;;;73.80;35.27;;;;;;;1.51;68.30;103280.81;10541925;28;20669;-66
2022/03/21 03:11:48;;;;;;;91.67;40.10;;;;;;;1.53;68.04;103286.94;10541758;28;20306;-64
2022/03/21 03:16:51;;;;;;;98.73;41.80;;;;;;;1.53;68.46;103280.16;10541912;28;20221;-66
2022/03/21 03:21:56;;;;;;;111.00;46.97;;;;;;;1.57;68.57;103273.59;10541650;28;20237;-67
2022/03/21 03:27:01;;;;;;;116.43;51.50;;;;;;;1.58;67.67;103277.91;10541700;28;20220;-66
2022/03/21 03:32:05;;;;;;;139.03;55.43;;;;;;;1.46;68.65;103274.47;10541643;28;20544;-68
2022/03/21 03:37:08;;;;;;;142.70;59.10;;;;;;;1.51;69.52;103268.91;10543260;28;20237;-68
2022/03/21 03:42:13;;;;;;;143.20;60.67;;;;;;;1.50;68.39;103268.81;10549321;28;20234;-67
2022/03/21 03:47:16;;;;;;;144.97;60.70;;;;;;;1.46;68.69;103272.81;10549667;28;20230;-68
2022/03/21 03:52:19;;;;;;;138.07;59.90;;;;;;;1.46;69.38;103269.34;10548972;28;20227;-64
2022/03/21 03:57:24;;;;;;;146.70;60.13;;;;;;;1.42;68.47;103263.13;10548401;28;20211;-65
2022/03/21 04:02:27;;;;;;;151.33;61.50;;;;;;;1.33;68.27;103262.44;10548242;28;20250;-68
2022/03/21 04:07:31;;;;;;;143.67;62.73;;;;;;;1.45;68.18;103259.91;10548266;28;20231;-66
2022/03/21 04:12:37;;;;;;;144.90;62.13;;;;;;;1.38;68.99;103257.66;10547850;28;20226;-69
2022/03/21 04:17:40;;;;;;;139.73;58.67;;;;;;;1.46;69.07;103257.44;10548276;28;20529;-69
2022/03/21 04:22:43;;;;;;;144.47;61.97;;;;;;;1.34;69.88;103260.78;10547571;28;20230;-66
2022/03/21 04:27:48;;;;;;;146.27;61.80;;;;;;;1.15;70.43;103262.00;10547584;28;20228;-64
2022/03/21 04:32:51;;;;;;;140.70;59.43;;;;;;;1.16;70.57;103270.53;10547151;28;20219;-66
2022/03/21 04:37:55;;;;;;;125.30;57.27;;;;;;;1.13;69.86;103268.66;10547339;28;20227;-69
2022/03/21 04:43:00;;;;;;;123.27;53.13;;;;;;;1.16;70.34;103271.44;10546636;28;20227;-67
2022/03/21 04:48:03;;;;;;;123.83;51.03;;;;;;;1.19;70.32;103278.47;10545987;28;20215;-70
2022/03/21 04:53:08;;;;;;;125.33;53.10;;;;;;;1.17;69.97;103278.31;10546402;28;20661;-70
2022/03/21 04:58:13;;;;;;;120.50;52.07;;;;;;;1.25;69.95;103278.00;10546802;28;20216;-66
2022/03/21 05:03:16;;;;;;;121.27;50.13;;;;;;;1.25;69.88;103275.44;10545881;28;20223;-67
2022/03/21 05:08:21;;;;;;;116.40;48.77;;;;;;;1.33;70.01;103282.91;10545981;28;20271;-66
2022/03/21 05:13:27;;;;;;;102.63;47.70;;;;;;;1.38;70.16;103268.78;10545730;28;20595;-65
2022/03/21 05:18:34;;;;;;;112.47;46.67;;;;;;;1.47;69.71;103277.13;10545935;28;20211;-66
2022/03/21 05:40:31;;;;;;;106.33;48.03;;;;;;;1.42;68.83;103291.25;10544489;28;20676;-66
2022/03/21 05:45:07;;;;;;;116.27;48.07;;;;;;;1.52;69.10;103291.16;10544499;28;20261;-65
2022/03/21 05:50:10;;;;;;;120.70;49.93;;;;;;;1.60;70.27;103300.28;10544546;28;20215;-68
2022/03/21 05:55:14;;;;;;;113.90;48.37;;;;;;;1.70;69.36;103283.91;10544057;28;20216;-66
2022/03/21 06:00:21;;;;;;;106.67;45.50;;;;;;;2.11;68.12;103296.34;10543362;28;20239;-65
2022/03/21 06:05:25;;;;;;;95.03;42.77;;;;;;;2.07;69.21;103294.34;10543830;28;20215;-65
2022/03/21 06:10:30;;;;;;;93.10;42.10;;;;;;;2.25;67.70;103292.19;10543425;28;20215;-70
2022/03/21 06:15:35;;;;;;;82.43;37.13;;;;;;;2.40;67.34;103295.81;10542698;28;20261;-69
2022/03/21 06:20:39;;;;;;;82.77;38.03;;;;;;;2.55;66.67;103296.91;10543082;28;20245;-69
2022/03/21 06:25:42;;;;;;;91.20;38.20;;;;;;;2.72;65.51;103295.47;10542892;28;20671;-65
2022/03/21 06:30:47;;;;;;;78.63;37.03;;;;;;;2.84;66.83;103293.75;10542635;28;20246;-67
2022/03/21 06:35:50;;;;;;;87.37;37.53;;;;;;;2.97;66.34;103293.81;10524922;28;20245;-68
2022/03/21 06:40:56;;;;;;;84.00;36.23;;;;;;;3.08;64.98;103287.69;10542209;28;20312;-69
2022/03/21 06:46:01;;;;;;;81.10;35.73;;;;;;;3.20;64.50;103293.66;10542144;28;20241;-68
2022/03/21 06:51:04;;;;;;;83.80;35.63;;;;;;;3.29;64.04;103305.44;10542535;28;20282;-67
2022/03/21 06:56:08;;;;;;;77.83;35.70;;;;;;;3.42;62.25;103301.97;10541956;28;20219;-65
2022/03/21 07:01:12;;;;;;;75.23;33.07;;;;;;;3.59;62.35;103296.25;10542226;28;20227;-67
2022/03/21 07:06:17;;;;;;;72.63;30.83;;;;;;;3.80;61.88;103299.31;10541945;28;20221;-67
2022/03/21 07:11:21;;;;;;;55.87;27.50;;;;;;;3.96;59.64;103285.00;10544190;28;20225;-71
2022/03/21 07:16:26;;;;;;;52.70;21.87;;;;;;;4.17;59.02;103291.50;10550394;28;20211;-67
2022/03/21 07:21:29;;;;;;;48.23;20.93;;;;;;;4.38;57.85;103297.94;10547766;28;20220;-69
2022/03/21 07:26:33;;;;;;;57.87;23.27;;;;;;;4.59;57.30;103296.69;10544533;28;20212;-69
2022/03/21 07:31:40;;;;;;;51.13;21.73;;;;;;;4.86;57.56;103299.16;10549863;28;20219;-71
2022/03/21 07:36:43;;;;;;;48.93;20.80;;;;;;;5.07;56.50;103295.28;10548880;28;20224;-66
2022/03/21 07:41:46;;;;;;;41.47;19.53;;;;;;;5.23;55.69;103297.97;10549296;28;20665;-67
2022/03/21 07:52:18;;;;;;;39.60;18.97;;;;;;;5.59;54.07;103300.97;10548845;28;20235;-69
2022/03/21 07:57:23;;;;;;;33.90;15.80;;;;;;;5.77;53.26;103291.72;10548731;28;20675;-65
2022/03/21 08:02:28;;;;;;;33.27;15.80;;;;;;;6.01;52.46;103289.66;10548410;28;20229;-65
2022/03/21 08:07:35;;;;;;;36.87;17.43;;;;;;;6.20;52.14;103287.28;10548280;28;20223;-66
2022/03/21 08:12:42;;;;;;;36.10;15.77;;;;;;;6.38;51.89;103280.53;10547999;28;20230;-66
2022/03/21 08:17:52;;;;;;;35.63;16.90;;;;;;;6.61;51.14;103279.19;10547861;28;20537;-64
2022/03/21 08:22:56;;;;;;;38.33;17.70;;;;;;;6.82;50.46;103273.44;10547283;28;20219;-65
2022/03/21 08:27:59;;;;;;;35.00;18.03;;;;;;;7.20;49.35;103271.91;10547235;28;20221;-71
2022/03/21 08:33:05;;;;;;;30.10;15.23;;;;;;;7.36;49.47;103274.44;10547383;28;20645;-67
2022/03/21 08:38:10;;;;;;;35.40;16.57;;;;;;;7.52;48.90;103261.47;10546744;28;20231;-63
2022/03/21 08:43:14;;;;;;;33.77;15.93;;;;;;;7.71;48.61;103261.56;10546772;28;20706;-65
2022/03/21 08:48:18;;;;;;;27.73;15.47;;;;;;;7.91;47.52;103253.03;10546873;28;20717;-66
2022/03/21 08:53:21;;;;;;;30.93;14.57;;;;;;;8.16;47.89;103240.44;10546425;28;20676;-64
2022/03/21 08:58:25;;;;;;;25.90;13.07;;;;;;;8.46;46.67;103233.19;10545869;28;20219;-67
2022/03/21 09:03:29;;;;;;;28.30;12.97;;;;;;;8.69;45.87;103241.16;10545925;28;20228;-66
2022/03/21 09:08:34;;;;;;;26.43;12.03;;;;;;;8.98;44.76;103234.63;10545771;28;20215;-71
2022/03/21 09:13:38;;;;;;;22.83;11.53;;;;;;;9.40;43.90;103230.34;10545802;28;20218;-66
2022/03/21 09:18:45;;;;;;;19.93;9.83;;;;;;;9.72;43.61;103237.69;10545282;28;20211;-66
2022/03/21 09:23:48;;;;;;;24.50;11.97;;;;;;;10.25;42.42;103227.72;10545131;28;20628;-69
2022/03/21 09:28:59;;;;;;;20.90;10.93;;;;;;;11.02;41.04;103233.97;10544649;28;20223;-66
2022/03/21 09:34:04;;;;;;;22.60;11.57;;;;;;;11.94;39.31;103223.97;10545551;28;20223;-65
2022/03/21 09:39:09;;;;;;;24.10;10.30;;;;;;;12.77;37.16;103214.22;10544566;28;20227;-67
2022/03/21 09:44:13;;;;;;;21.33;9.57;;;;;;;13.31;36.13;103206.97;10544402;28;20227;-66
2022/03/21 09:49:19;;;;;;;22.33;9.20;;;;;;;13.90;35.73;103198.78;10544205;28;20221;-70
2022/03/21 09:54:22;;;;;;;17.10;9.87;;;;;;;14.67;34.20;103191.66;10544060;28;20653;-68
2022/03/21 09:59:26;;;;;;;18.50;9.70;;;;;;;15.42;32.96;103184.25;10543511;28;20225;-69
2022/03/21 10:04:31;;;;;;;20.63;9.97;;;;;;;16.22;32.42;103167.91;10543736;28;20223;-67
2022/03/21 10:09:34;;;;;;;19.97;8.90;;;;;;;16.79;31.14;103165.91;10543246;28;20211;-65
2022/03/21 10:14:38;;;;;;;17.93;8.93;;;;;;;17.28;31.11;103159.34;10543805;28;20703;-66
2022/03/21 10:19:46;;;;;;;13.83;8.77;;;;;;;17.78;30.32;103147.41;10542617;28;20215;-68
2022/03/21 10:24:52;;;;;;;16.90;8.67;;;;;;;18.11;29.70;103142.31;10542839;28;20250;-69
2022/03/21 10:30:00;;;;;;;15.73;9.30;;;;;;;18.64;28.69;103136.34;10542686;28;20226;-68
2022/03/21 10:35:10;;;;;;;16.67;9.33;;;;;;;19.12;27.76;103121.41;10542231;28;20675;-68
2022/03/21 10:40:23;;;;;;;15.33;9.60;;;;;;;19.40;27.20;103122.25;10542132;28;20235;-67
2022/03/21 10:45:41;;;;;;;18.10;9.93;;;;;;;19.93;26.62;103111.56;10541912;28;20656;-70
2022/03/21 10:50:47;;;;;;;14.77;8.17;;;;;;;20.34;25.58;103110.47;10542039;28;20230;-68
2022/03/21 10:56:00;;;;;;;16.67;8.95;;;;;;;20.67;25.89;103099.66;10542225;28;20225;-61
2022/03/21 11:01:11;;;;;;;46.83;32.07;;;;;;;21.11;25.60;103098.41;10541758;28;20226;-66
2022/03/21 11:06:17;;;;;;;14.43;8.53;;;;;;;21.44;25.34;103084.84;10541772;28;20235;-67
2022/03/21 11:11:21;;;;;;;18.63;9.07;;;;;;;21.57;24.91;103074.13;10499812;28;20689;-68
2022/03/21 11:16:25;;;;;;;13.47;8.30;;;;;;;21.61;24.74;103069.66;10500795;28;20222;-65
2022/03/21 11:21:31;;;;;;;14.93;8.65;;;;;;;21.96;24.55;103062.19;10542051;28;20311;-63
2022/03/21 11:26:53;;;;;;;13.63;8.57;;;;;;;22.20;24.06;103064.47;10539873;28;20545;-66
2022/03/21 11:32:16;;;;;;;14.65;9.68;;;;;;;22.59;23.30;103058.56;10499549;28;20230;-67
2022/03/21 11:37:27;;;;;;;;;;;;;;;23.42;23.98;103041.16;10530944;28;20065;-65
2022/03/21 11:42:31;;;;;;;;;;;;;;;24.14;23.44;103044.03;10541636;28;19920;-67
2022/03/21 11:47:35;;;;;;;;;;;;;;;24.53;23.02;103029.75;10541022;28;19930;-68
2022/03/21 11:52:53;;;;;;;;;;;;;;;24.74;22.99;103023.94;10541512;28;19930;-67
2022/03/21 11:57:57;;;;;;;;;;;;;;;24.67;22.76;103010.81;10542358;28;19930;-66
2022/03/21 12:03:00;;;;;;;;;;;;;;;25.40;23.27;103007.06;10546514;28;20278;-66
2022/03/21 12:08:23;;;;;;;;;;;;;;;25.07;22.86;102987.59;10548274;28;20342;-67
2022/03/21 12:13:38;;;;;;;;;;;;;;;25.45;22.48;102983.84;10193952;28;10000467;-64
2022/03/21 12:19:01;;;;;;;;;;;;;;;25.54;22.27;102978.25;10545115;28;19920;-66
2022/03/21 12:24:11;;;;;;;;;;;;;;;25.87;21.74;102961.19;10527498;28;20346;-66
2022/03/21 12:29:36;;;;;;;;;;;;;;;26.71;21.94;102963.72;10543814;28;20380;-67
2022/03/21 12:34:41;;;;;;;18.30;9.80;;;;;;;27.88;20.49;102947.63;10540474;28;19979;-65
2022/03/21 12:39:47;;;;;;;;;;;;;;;26.07;22.48;102946.38;10547037;28;20003;-68
2022/03/21 12:44:50;;;;;;;;;;;;;;;24.27;23.78;102947.22;10547201;28;20322;-67
2022/03/21 12:49:55;;;;;;;;;;;;;;;22.71;24.83;102948.94;10545644;28;20273;-70
2022/03/21 12:55:00;;;;;;;;;;;;;;;22.80;24.19;102946.09;10546756;28;19926;-69
2022/03/21 13:00:16;;;;;;;;;;;;;;;22.78;24.26;102943.47;10546386;28;20003;-65
2022/03/21 13:10:43;;;;;;;;;;;;;;;22.25;25.09;102937.38;10545671;28;19920;-67
2022/03/21 13:15:46;;;;;;;;;;;;;;;22.46;25.22;102924.66;10546008;28;19920;-70
2022/03/21 13:20:51;;;;;;;;;;;;;;;22.80;24.40;102928.44;10545245;28;19920;-69
2022/03/21 13:25:54;;;;;;;;;;;;;;;21.97;24.69;102917.59;10545507;28;19923;-65
2022/03/21 13:30:59;;;;;;;;;;;;;;;21.39;25.64;102920.19;10545142;28;19920;-68
2022/03/21 13:36:04;;;;;;;;;;;;;;;21.08;25.49;102917.09;10545348;28;19920;-66
2022/03/21 13:41:15;;;;;;;;;;;;;;;20.78;25.88;102912.13;10544604;28;19923;-66
2022/03/21 13:46:23;;;;;;;;;;;;;;;20.22;26.02;102915.38;10544604;28;20014;-67
2022/03/21 13:51:29;;;;;;;;;;;;;;;20.15;26.63;102911.00;10544073;28;20265;-68
2022/03/21 13:56:34;;;;;;;;;;;;;;;20.13;27.74;102914.50;10544519;28;19920;-67
2022/03/21 14:01:40;;;;;;;;;;;;;;;20.23;26.50;102913.56;10543859;28;20241;-67
2022/03/21 14:06:56;;;;;;;;;;;;;;;19.92;27.02;102905.03;10543911;28;20261;-67
2022/03/21 14:12:07;;;;;;;;;;;;;;;19.81;27.12;102903.38;10543388;28;19927;-66
2022/03/21 14:17:10;;;;;;;;;;;;;;;19.06;27.20;102907.28;10543805;28;19920;-66
2022/03/21 14:22:15;;;;;;;;;;;;;;;18.99;27.33;102903.81;10542929;28;19920;-67
2022/03/21 14:27:18;;;;;;;;;;;;;;;18.97;27.72;102896.78;10543197;28;19930;-67
2022/03/21 14:32:22;;;;;;;;;;;;;;;18.55;28.58;102895.16;10542738;28;19920;-67
2022/03/21 14:37:27;;;;;;;;;;;;;;;17.96;29.38;102892.59;10542605;28;20405;-67
2022/03/21 14:42:30;;;;;;;;;;;;;;;17.35;29.15;102880.19;10541134;28;19920;-68
2022/03/21 14:47:34;;;;;;;;;;;;;;;16.90;30.48;102880.03;10509970;28;19924;-66
2022/03/21 14:52:39;;;;;;;15.67;8.40;;;;;;;16.77;30.76;102883.50;10540896;28;20176;-67
2022/03/21 14:57:43;;;;;;;17.57;10.07;;;;;;;16.66;30.90;102880.81;10541232;28;20225;-69
2022/03/21 15:02:46;;;;;;;16.37;9.07;;;;;;;16.41;30.73;102863.13;10540859;28;20555;-68
2022/03/21 15:07:51;;;;;;;14.80;8.47;;;;;;;16.17;31.79;102869.09;10188211;28;10000552;-68
2022/03/21 15:12:58;;;;;;;17.03;9.17;;;;;;;16.06;31.19;102870.78;10536357;28;21518;-68
2022/03/21 15:18:01;;;;;;;22.90;12.73;;;;;;;15.82;31.63;102867.09;10528299;28;20207;-68
2022/03/21 15:23:06;;;;;;;19.97;9.93;;;;;;;15.68;31.53;102866.09;10537509;28;20219;-69
2022/03/21 15:28:11;;;;;;;18.70;9.27;;;;;;;15.47;33.28;102860.63;10537727;28;20207;-69
2022/03/21 15:33:15;;;;;;;19.97;9.37;;;;;;;15.49;32.68;102859.81;10538325;28;20306;-66
2022/03/21 15:43:40;;;;;;;27.30;11.03;;;;;;;16.04;31.56;102848.94;10539086;28;20687;-64
2022/03/21 15:48:43;;;;;;;32.87;19.87;;;;;;;16.47;30.22;102843.97;10544765;28;20218;-62
2022/03/21 15:53:48;;;;;;;19.87;9.97;;;;;;;15.97;30.90;102854.09;10544672;28;20570;-62
2022/03/21 15:58:52;;;;;;;19.47;10.23;;;;;;;15.51;32.07;102865.06;10544764;28;20657;-64
2022/03/21 16:03:57;;;;;;;21.83;9.50;;;;;;;15.31;32.34;102863.91;10541393;28;20222;-68
2022/03/21 16:09:02;;;;;;;15.63;8.63;;;;;;;15.03;32.80;102863.63;10544423;28;20563;-67
2022/03/21 16:14:05;;;;;;;17.93;9.47;;;;;;;14.79;32.84;102859.81;10544124;28;20619;-66
2022/03/21 16:19:13;;;;;;;19.53;9.47;;;;;;;14.59;33.76;102858.69;10544457;28;20241;-70
2022/03/21 16:24:19;;;;;;;19.27;10.30;;;;;;;14.33;33.48;102870.50;10544659;28;20299;-66
2022/03/21 16:29:22;;;;;;;18.60;9.93;;;;;;;14.18;33.54;102865.03;10524401;28;20215;-64
2022/03/21 16:34:25;;;;;;;19.63;8.90;;;;;;;14.00;34.84;102875.16;10544169;28;20227;-68
2022/03/21 16:39:32;;;;;;;21.07;11.60;;;;;;;13.71;35.23;102867.75;10538538;28;20233;-65
2022/03/21 16:44:38;;;;;;;36.03;18.77;;;;;;;13.55;35.11;102872.66;10538739;28;20654;-71
2022/03/21 16:49:55;;;;;;;24.50;11.70;;;;;;;13.41;35.04;102872.41;10543133;28;20556;-72
2022/03/21 16:55:00;;;;;;;31.63;12.03;;;;;;;13.17;35.24;102877.16;10542912;28;20645;-65
2022/03/21 17:00:07;;;;;;;29.07;11.83;;;;;;;13.04;35.23;102872.56;10517531;28;20295;-66
2022/03/21 17:05:15;;;;;;;23.63;11.30;;;;;;;12.95;36.06;102876.66;10531901;28;20219;-66
2022/03/21 17:10:21;;;;;;;228.17;118.53;;;;;;;12.67;36.90;102875.19;10539648;28;20239;-65
2022/03/21 17:15:25;;;;;;;29.03;16.63;;;;;;;12.54;37.27;102878.41;10542297;28;20306;-69
2022/03/21 17:25:55;;;;;;;22.40;10.10;;;;;;;12.24;37.82;102885.50;10541933;28;20685;-65
2022/03/21 17:30:58;;;;;;;26.10;11.23;;;;;;;12.00;38.33;102890.13;10542168;28;20212;-67
2022/03/21 17:36:01;;;;;;;18.97;9.63;;;;;;;11.97;38.53;102901.34;10541396;28;20219;-68
2022/03/21 17:41:07;;;;;;;18.03;10.53;;;;;;;11.84;38.66;102894.06;10541384;28;20692;-67
2022/03/21 17:46:11;;;;;;;19.00;10.70;;;;;;;11.60;39.08;102894.28;10541317;28;20216;-67
2022/03/21 17:51:15;;;;;;;26.40;12.10;;;;;;;11.55;38.95;102897.59;10531354;28;20208;-65
2022/03/21 17:56:19;;;;;;;20.53;11.10;;;;;;;11.36;39.97;102903.13;10539911;28;20307;-66
2022/03/21 18:01:23;;;;;;;20.80;11.63;;;;;;;11.36;39.30;102897.94;10542152;28;20216;-66
2022/03/21 18:06:26;;;;;;;31.40;14.13;;;;;;;11.26;39.22;102901.13;10540376;28;20221;-68
2022/03/21 18:11:31;;;;;;;27.20;12.00;;;;;;;11.34;38.91;102899.59;10503440;28;20216;-67
2022/03/21 18:16:35;;;;;;;23.67;11.73;;;;;;;11.08;39.33;102903.22;10501249;28;20542;-67
2022/03/21 18:21:38;;;;;;;34.57;15.90;;;;;;;10.98;39.85;102904.66;10505213;28;20216;-68
2022/03/21 18:26:44;;;;;;;40.77;19.07;;;;;;;10.90;40.62;102913.06;10542989;28;20229;-65
2022/03/21 18:31:47;;;;;;;24.53;12.60;;;;;;;10.88;40.06;102912.13;10542459;28;20188;-67
2022/03/21 18:36:50;;;;;;;20.30;11.93;;;;;;;10.78;40.17;102905.81;10541239;28;20223;-68
2022/03/21 18:41:55;;;;;;;26.70;12.30;;;;;;;10.77;40.11;102913.56;10542610;28;20195;-66
2022/03/21 18:46:58;;;;;;;33.00;13.43;;;;;;;10.66;40.20;102918.44;10542839;28;20267;-67
2022/03/21 18:52:02;;;;;;;29.37;13.70;;;;;;;10.54;40.60;102920.66;10542473;28;20198;-69
2022/03/21 18:57:07;;;;;;;37.87;15.93;;;;;;;10.55;40.59;102921.50;10542325;28;20227;-66
2022/03/21 19:02:10;;;;;;;31.13;15.63;;;;;;;10.45;41.18;102910.84;10542200;28;20187;-63
2022/03/21 19:07:14;;;;;;;50.63;22.83;;;;;;;10.27;42.32;102933.63;10544818;28;20278;-65
2022/03/21 19:12:19;;;;;;;39.70;21.67;;;;;;;10.11;42.56;102927.91;10551028;28;20202;-64
2022/03/21 19:17:33;;;;;;;31.53;15.30;;;;;;;10.04;44.29;102939.72;10550589;28;20217;-67
2022/03/21 19:22:36;;;;;;;35.80;15.97;;;;;;;10.14;43.76;102936.66;10550259;28;20274;-66
2022/03/21 19:27:50;;;;;;;31.87;15.53;;;;;;;10.12;42.89;102946.09;10549943;28;20274;-68
2022/03/21 19:32:53;;;;;;;30.43;14.93;;;;;;;9.86;44.18;102946.00;10532636;28;20231;-65
2022/03/21 19:37:58;;;;;;;34.80;16.90;;;;;;;9.57;46.06;102947.59;10532276;28;20373;-67
2022/03/21 19:43:04;;;;;;;39.83;18.13;;;;;;;9.39;46.76;102957.31;10550082;28;20278;-65
2022/03/21 19:48:08;;;;;;;40.87;17.33;;;;;;;9.31;47.49;102954.44;10549303;28;20195;-67
2022/03/21 19:53:11;;;;;;;41.37;19.60;;;;;;;9.12;48.46;102958.88;10549088;28;20198;-65
2022/03/21 19:58:17;;;;;;;44.10;21.73;;;;;;;8.97;47.98;102956.59;10549110;28;20403;-67
2022/03/21 20:03:20;;;;;;;49.60;22.33;;;;;;;8.89;49.03;102959.72;10548908;28;20219;-67
2022/03/21 20:08:23;;;;;;;48.93;22.40;;;;;;;8.74;48.89;102951.38;10548516;28;20231;-66
2022/03/21 20:13:28;;;;;;;47.47;23.03;;;;;;;8.50;51.67;102959.06;10548303;28;20205;-65
2022/03/21 20:18:31;;;;;;;74.00;39.53;;;;;;;7.91;53.67;102960.84;10547239;28;20195;-71
2022/03/21 20:23:35;;;;;;;49.97;23.53;;;;;;;7.59;54.41;102958.59;10547923;28;20653;-64
2022/03/21 20:28:40;;;;;;;53.47;25.23;;;;;;;7.52;56.19;102965.22;10547757;28;20310;-63
2022/03/21 20:33:44;;;;;;;55.47;26.00;;;;;;;7.38;57.07;102966.28;10542724;28;20740;-66
2022/03/21 20:38:47;;;;;;;61.47;26.63;;;;;;;7.20;55.67;102962.88;10546543;28;20273;-63
2022/03/21 20:43:53;;;;;;;57.13;29.20;;;;;;;7.05;55.55;102967.34;10547322;28;20522;-64
2022/03/21 20:48:57;;;;;;;59.13;29.97;;;;;;;7.00;56.30;102967.16;10546921;28;20313;-63
2022/03/21 20:54:00;;;;;;;54.67;28.30;;;;;;;6.86;57.76;102967.31;10546805;28;20236;-63
2022/03/21 20:59:05;;;;;;;58.97;29.50;;;;;;;6.74;58.60;102977.06;10527710;28;20231;-65
2022/03/21 21:04:09;;;;;;;58.33;27.80;;;;;;;6.59;60.35;102977.19;10536407;28;20233;-64
2022/03/21 21:09:12;;;;;;;62.13;30.90;;;;;;;6.46;60.30;102980.00;10545857;28;20660;-62
2022/03/21 21:14:20;;;;;;;61.93;30.40;;;;;;;6.31;61.14;102973.22;10542076;28;20277;-63
2022/03/21 21:19:25;;;;;;;64.30;31.40;;;;;;;6.18;62.27;102976.88;10544877;28;20668;-63
2022/03/21 21:24:29;;;;;;;65.67;30.83;;;;;;;6.10;63.61;102979.91;10545081;28;20290;-63
2022/03/21 21:29:34;;;;;;;66.37;30.37;;;;;;;6.13;64.48;102977.47;10544359;28;20529;-65
2022/03/21 21:34:37;;;;;;;60.57;31.03;;;;;;;6.00;63.36;102980.25;10545009;28;20645;-64
2022/03/21 21:39:41;;;;;;;71.10;32.23;;;;;;;5.83;63.71;102971.69;10540053;28;20322;-63
2022/03/21 21:44:46;;;;;;;65.00;32.57;;;;;;;5.74;66.05;102968.59;10544152;28;20226;-65
2022/03/21 21:49:50;;;;;;;60.37;30.47;;;;;;;5.46;65.10;102963.72;10544080;28;20255;-64
2022/03/21 21:54:53;;;;;;;63.33;32.37;;;;;;;5.52;65.66;102969.16;10544096;28;20570;-65
2022/03/21 21:59:58;;;;;;;64.73;32.37;;;;;;;5.50;67.41;102962.19;10543888;28;20215;-65
2022/03/21 22:05:01;;;;;;;64.33;31.77;;;;;;;5.42;66.78;102960.88;10544163;28;20223;-64
2022/03/21 22:10:06;;;;;;;61.57;32.10;;;;;;;5.36;66.77;102965.72;10526969;28;20229;-64
2022/03/21 22:15:11;;;;;;;65.87;32.20;;;;;;;5.25;66.78;102966.81;10543505;28;20247;-65
2022/03/21 22:20:14;;;;;;;64.30;32.43;;;;;;;5.21;65.49;102964.91;10543563;28;20609;-66
2022/03/21 22:25:18;;;;;;;67.60;33.17;;;;;;;5.12;66.31;102961.84;10542769;28;20233;-65
2022/03/21 22:30:23;;;;;;;68.63;33.43;;;;;;;5.04;67.23;102956.28;10542718;28;20679;-63
2022/03/21 22:35:26;;;;;;;67.03;32.27;;;;;;;5.01;66.20;102960.38;10542766;28;20238;-64
2022/03/21 22:51:21;;;;;;;71.37;32.67;;;;;;;4.89;67.81;102960.59;10517759;28;20227;-65
2022/03/21 22:56:24;;;;;;;59.20;32.00;;;;;;;4.76;68.38;102977.88;10542308;28;20226;-64
2022/03/21 23:01:29;;;;;;;69.43;32.30;;;;;;;4.74;69.11;102970.06;10542034;28;20683;-63
2022/03/21 23:06:32;;;;;;;61.17;29.77;;;;;;;4.75;70.13;102971.81;10542075;28;20233;-62
2022/03/21 23:11:37;;;;;;;62.70;32.07;;;;;;;4.68;70.81;102978.31;10542195;28;20228;-65
2022/03/21 23:16:43;;;;;;;96.23;48.63;;;;;;;4.61;72.49;102980.47;10542204;28;20234;-66
2022/03/21 23:21:47;;;;;;;68.87;33.93;;;;;;;4.34;72.21;102977.25;10542054;28;20211;-64
2022/03/21 23:26:50;;;;;;;73.63;34.57;;;;;;;4.38;73.33;102979.16;10541951;28;20668;-65
2022/03/21 23:31:55;;;;;;;61.87;32.43;;;;;;;4.25;73.37;102981.84;10541955;28;20231;-65
2022/03/21 23:36:58;;;;;;;65.27;31.57;;;;;;;4.27;73.30;102993.09;10541284;28;20226;-63
2022/03/21 23:47:23;;;;;;;69.23;33.07;;;;;;;4.36;72.62;102983.34;10541144;28;20223;-62
2022/03/21 23:52:26;;;;;;;68.57;32.50;;;;;;;4.17;75.81;102987.34;10195099;28;10000178;-65
2022/03/21 23:57:29;;;;;;;68.27;33.37;;;;;;;3.91;74.88;102996.09;10588183;28;20231;-64
